Time;durP1;ratioP1;P1;durP2;ratioP2;P2;SDS_P1;SDS_P2;PMS_P1;PMS_P2;Temp;Humidity;BMP_temperature;BMP_pressure;BME280_temperature;BME280_humidity;BME280_pressure;Samples;Min_cycle;Max_cycle;Signal;HPM_P1;HPM_P2
2022/01/04 00:00:13;;;;;;;16.77;2.47;;;8.20;99.90;;;;;;6214154;23;20016;-93
2022/01/04 00:02:44;;;;;;;16.45;3.22;;;8.20;99.90;;;;;;6216856;23;20028;-93
2022/01/04 00:05:14;;;;;;;13.73;3.08;;;8.20;99.90;;;;;;6190409;23;20025;-93
2022/01/04 00:07:47;;;;;;;11.38;2.25;;;8.20;99.90;;;;;;6214362;23;20099;-93
2022/01/04 00:10:20;;;;;;;17.05;2.40;;;8.20;99.90;;;;;;6214827;23;20440;-93
2022/01/04 00:15:42;;;;;;;19.60;3.28;;;8.10;99.90;;;;;;6215630;23;20108;-93
2022/01/04 00:18:11;;;;;;;14.73;2.40;;;8.10;99.90;;;;;;6194226;23;20017;-93
2022/01/04 00:20:41;;;;;;;17.95;1.83;;;8.10;99.90;;;;;;6190405;23;20039;-92
2022/01/04 00:23:11;;;;;;;28.73;3.28;;;8.20;99.90;;;;;;6190270;23;20083;-93
2022/01/04 00:25:44;;;;;;;20.00;2.33;;;8.10;99.90;;;;;;6215263;23;20016;-93
2022/01/04 00:28:14;;;;;;;29.13;3.33;;;8.10;99.90;;;;;;6216264;23;20036;-92
2022/01/04 00:30:45;;;;;;;29.77;3.83;;;8.10;99.90;;;;;;6214982;23;20017;-93
2022/01/04 00:33:18;;;;;;;16.60;2.13;;;8.10;99.90;;;;;;6217625;23;20408;-92
2022/01/04 00:35:54;;;;;;;32.65;3.65;;;8.10;99.90;;;;;;6201968;23;20051;-93
2022/01/04 00:38:22;;;;;;;20.92;3.70;;;8.10;99.90;;;;;;6191843;23;20031;-93
2022/01/04 00:41:03;;;;;;;17.58;3.22;;;8.10;99.90;;;;;;6218338;23;20016;-94
2022/01/04 00:43:34;;;;;;;15.27;1.80;;;8.10;99.90;;;;;;6192113;23;20013;-93
2022/01/04 00:46:02;;;;;;;25.17;3.03;;;8.10;99.90;;;;;;6192288;23;20021;-93
2022/01/04 00:51:05;;;;;;;17.40;2.55;;;8.10;99.90;;;;;;6216645;23;20017;-93
2022/01/04 00:53:35;;;;;;;22.48;2.97;;;8.10;99.90;;;;;;6218584;23;20790;-92
2022/01/04 00:56:05;;;;;;;16.65;2.30;;;8.10;99.90;;;;;;6217925;23;20048;-93
2022/01/04 00:58:38;;;;;;;20.88;2.80;;;8.10;99.90;;;;;;6193537;23;20020;-92
2022/01/04 01:01:09;;;;;;;18.70;2.25;;;8.10;99.90;;;;;;6216146;23;20487;-93
2022/01/04 01:03:37;;;;;;;17.15;3.30;;;8.10;99.90;;;;;;6217221;23;20025;-93
2022/01/04 01:06:07;;;;;;;13.10;2.65;;;8.10;99.90;;;;;;6216774;23;20013;-93
2022/01/04 01:08:49;;;;;;;14.30;2.13;;;8.10;99.90;;;;;;6194041;23;20444;-94
2022/01/04 01:11:16;;;;;;;14.68;2.15;;;8.10;99.90;;;;;;6216099;23;20023;-93
2022/01/04 01:13:47;;;;;;;23.75;2.83;;;8.10;99.90;;;;;;6224399;22;20013;-93
2022/01/04 01:16:17;;;;;;;12.80;2.28;;;8.10;99.90;;;;;;6216244;23;20021;-93
2022/01/04 01:18:49;;;;;;;10.82;3.45;;;8.10;99.90;;;;;;6191377;23;20009;-93
2022/01/04 01:21:22;;;;;;;12.02;1.85;;;8.10;99.90;;;;;;6216154;23;20020;-94
2022/01/04 01:23:53;;;;;;;17.40;2.17;;;8.10;99.90;;;;;;6216388;23;20432;-93
2022/01/04 01:26:25;;;;;;;16.15;2.90;;;8.10;99.90;;;;;;6216700;23;20436;-93
2022/01/04 01:28:59;;;;;;;17.20;2.17;;;8.10;99.90;;;;;;6191928;23;20071;-94
2022/01/04 01:31:36;;;;;;;18.60;3.50;;;8.10;99.90;;;;;;6216769;23;20016;-93
2022/01/04 01:34:06;;;;;;;15.13;3.00;;;8.10;99.90;;;;;;6192650;23;20013;-94
2022/01/04 01:36:40;;;;;;;19.80;2.38;;;8.10;99.90;;;;;;6217168;23;20023;-93
2022/01/04 01:39:10;;;;;;;22.27;2.95;;;8.10;99.90;;;;;;6216533;23;20025;-92
2022/01/04 01:41:42;;;;;;;14.93;2.42;;;8.10;99.90;;;;;;6191822;23;20017;-93
2022/01/04 01:44:13;;;;;;;13.13;2.30;;;8.10;99.90;;;;;;6186415;23;20075;-93
2022/01/04 01:46:46;;;;;;;21.92;3.20;;;8.10;99.90;;;;;;6163392;23;20111;-93
2022/01/04 01:49:18;;;;;;;15.65;3.15;;;8.20;99.90;;;;;;6216918;23;20103;-93
2022/01/04 01:51:52;;;;;;;16.67;2.78;;;8.10;99.90;;;;;;6223069;23;20013;-93
2022/01/04 01:54:22;;;;;;;23.13;3.53;;;8.10;99.90;;;;;;6191205;23;20067;-93
2022/01/04 01:56:55;;;;;;;23.48;2.85;;;8.10;99.90;;;;;;6217200;23;20016;-93
2022/01/04 01:59:29;;;;;;;20.08;1.85;;;8.10;99.90;;;;;;6192678;23;20024;-93
2022/01/04 02:02:05;;;;;;;21.38;2.90;;;8.10;99.90;;;;;;6218438;23;20344;-93
2022/01/04 02:04:37;;;;;;;15.25;2.78;;;8.10;99.90;;;;;;6215993;23;20021;-92
2022/01/04 02:07:12;;;;;;;16.02;2.30;;;8.10;99.90;;;;;;6216845;23;20436;-94
2022/01/04 02:09:55;;;;;;;15.15;1.98;;;8.10;99.90;;;;;;6203335;23;20021;-93
2022/01/04 02:12:26;;;;;;;15.90;3.15;;;8.10;99.90;;;;;;6191426;23;20032;-92
2022/01/04 02:14:56;;;;;;;13.05;2.00;;;8.10;99.90;;;;;;6199155;23;20029;-92
2022/01/04 02:17:28;;;;;;;26.65;3.08;;;8.10;99.90;;;;;;6216329;23;20021;-93
2022/01/04 02:20:00;;;;;;;23.60;2.53;;;8.10;99.90;;;;;;6191203;23;20021;-93
2022/01/04 02:22:32;;;;;;;20.40;3.55;;;8.10;99.90;;;;;;6192296;23;20071;-93
2022/01/04 02:25:05;;;;;;;23.30;2.72;;;8.10;99.90;;;;;;6191191;23;20023;-93
2022/01/04 02:27:37;;;;;;;25.52;2.58;;;8.10;99.90;;;;;;6192797;23;20025;-93
2022/01/04 02:30:09;;;;;;;14.77;2.28;;;8.10;99.90;;;;;;6190953;23;20503;-93
2022/01/04 02:32:36;;;;;;;19.25;2.65;;;8.10;99.90;;;;;;6215838;23;20047;-92
2022/01/04 02:35:11;;;;;;;15.63;2.25;;;8.10;99.90;;;;;;6216109;23;20021;-93
2022/01/04 02:37:44;;;;;;;16.13;2.50;;;8.10;99.90;;;;;;6191301;23;20031;-93
2022/01/04 02:40:12;;;;;;;17.15;2.53;;;8.10;99.90;;;;;;6190578;23;20103;-92
2022/01/04 02:42:45;;;;;;;11.85;1.90;;;8.10;99.90;;;;;;6215991;23;20459;-93
2022/01/04 02:45:17;;;;;;;20.92;2.22;;;8.10;99.90;;;;;;6215643;23;20502;-93
2022/01/04 02:47:53;;;;;;;21.63;3.13;;;8.10;99.90;;;;;;6192136;23;20012;-93
2022/01/04 02:50:23;;;;;;;16.38;2.28;;;8.10;99.90;;;;;;6191477;23;20402;-93
2022/01/04 02:53:03;;;;;;;17.08;2.95;;;8.10;99.90;;;;;;6192009;23;20456;-93
2022/01/04 02:55:33;;;;;;;10.80;1.80;;;8.10;99.90;;;;;;6215594;23;20070;-92
2022/01/04 02:58:06;;;;;;;15.00;2.95;;;8.10;99.90;;;;;;6215759;23;20051;-93
2022/01/04 03:00:36;;;;;;;22.33;2.88;;;8.10;99.90;;;;;;6191767;23;20470;-93
2022/01/04 03:03:06;;;;;;;15.32;2.83;;;8.10;99.90;;;;;;6190817;23;20025;-93
2022/01/04 03:05:39;;;;;;;11.75;2.17;;;8.10;99.90;;;;;;6215263;23;20103;-92
2022/01/04 03:08:10;;;;;;;25.60;3.65;;;8.10;99.90;;;;;;6190971;23;20013;-93
2022/01/04 03:10:42;;;;;;;13.02;1.73;;;8.10;99.90;;;;;;6215827;23;20015;-93
2022/01/04 03:13:10;;;;;;;17.77;2.40;;;8.10;99.90;;;;;;6215062;23;20020;-93
2022/01/04 03:15:47;;;;;;;21.98;3.55;;;8.10;99.90;;;;;;6192620;23;20471;-93
2022/01/04 03:18:18;;;;;;;16.58;2.90;;;8.10;99.90;;;;;;6191090;23;20048;-93
2022/01/04 03:20:58;;;;;;;16.15;2.80;;;8.10;99.90;;;;;;6193243;23;20024;-93
2022/01/04 03:23:35;;;;;;;22.85;2.28;;;8.10;99.90;;;;;;6192411;23;20103;-93
2022/01/04 03:26:07;;;;;;;10.82;2.45;;;8.10;99.90;;;;;;6190981;23;20020;-92
2022/01/04 03:28:40;;;;;;;12.30;1.92;;;8.10;99.90;;;;;;6191071;23;20017;-94
2022/01/04 03:31:13;;;;;;;18.83;2.63;;;8.10;99.90;;;;;;6215376;23;20090;-93
2022/01/04 03:33:44;;;;;;;;;;;8.10;99.90;;;;;;6192152;23;20017;-93
2022/01/04 03:36:20;;;;;;;7.82;2.00;;;8.10;99.90;;;;;;6216596;23;19916;-93
2022/01/04 03:38:52;;;;;;;18.33;3.88;;;8.10;99.90;;;;;;6215281;23;20428;-94
2022/01/04 03:41:27;;;;;;;9.65;2.22;;;8.10;99.90;;;;;;6191433;23;20016;-93
2022/01/04 03:43:58;;;;;;;15.13;1.90;;;8.10;99.90;;;;;;6190861;23;20020;-93
2022/01/04 03:46:30;;;;;;;24.70;2.83;;;8.10;99.90;;;;;;6191027;23;20031;-94
2022/01/04 03:49:03;;;;;;;17.85;2.92;;;8.10;99.90;;;;;;6190907;23;20032;-93
2022/01/04 03:51:36;;;;;;;18.70;2.70;;;8.10;99.90;;;;;;6192053;23;20029;-94
2022/01/04 03:54:05;;;;;;;20.73;4.28;;;8.10;99.90;;;;;;6216082;23;20025;-93
2022/01/04 03:56:42;;;;;;;15.65;2.00;;;8.10;99.90;;;;;;6215197;23;20013;-93
2022/01/04 03:59:09;;;;;;;10.32;3.17;;;8.10;99.90;;;;;;6190389;23;20024;-93
2022/01/04 04:01:47;;;;;;;21.80;2.63;;;8.10;99.90;;;;;;6193208;23;20048;-93
2022/01/04 04:04:19;;;;;;;19.55;3.25;;;8.10;99.90;;;;;;6215495;23;20047;-93
2022/01/04 04:06:49;;;;;;;20.67;2.92;;;8.10;99.90;;;;;;6191826;23;20018;-93
2022/01/04 04:09:22;;;;;;;14.40;3.00;;;8.20;99.90;;;;;;6192873;23;20106;-93
2022/01/04 04:11:52;;;;;;;14.02;2.38;;;8.10;99.90;;;;;;6192593;23;20096;-94
2022/01/04 04:14:27;;;;;;;23.17;2.42;;;8.10;99.90;;;;;;6217825;23;20013;-93
2022/01/04 04:17:13;;;;;;;16.50;3.05;;;8.20;99.90;;;;;;6217133;23;20024;-93
2022/01/04 04:19:46;;;;;;;23.98;3.00;;;8.20;99.90;;;;;;6193174;23;20024;-93
2022/01/04 04:22:19;;;;;;;19.30;3.30;;;8.20;99.90;;;;;;6194044;23;20017;-94
2022/01/04 04:24:55;;;;;;;17.40;2.58;;;8.20;99.90;;;;;;6194343;23;20021;-94
2022/01/04 04:27:27;;;;;;;16.65;3.15;;;8.20;99.90;;;;;;6192628;23;20107;-93
2022/01/04 04:29:58;;;;;;;17.98;2.95;;;8.20;99.90;;;;;;6191978;23;20016;-93
2022/01/04 04:32:31;;;;;;;18.98;2.67;;;8.20;99.90;;;;;;6217028;23;20017;-94
2022/01/04 04:35:07;;;;;;;14.75;2.80;;;8.20;99.90;;;;;;6217290;23;20017;-92
2022/01/04 04:37:37;;;;;;;14.90;2.58;;;8.20;99.90;;;;;;6217222;23;20016;-93
2022/01/04 04:40:07;;;;;;;23.35;2.28;;;8.10;99.90;;;;;;6216841;23;20099;-93
2022/01/04 04:42:36;;;;;;;14.82;2.97;;;8.20;99.90;;;;;;6216823;23;20436;-93
2022/01/04 04:45:10;;;;;;;8.02;1.92;;;8.20;99.90;;;;;;6192327;23;20047;-93
2022/01/04 04:47:45;;;;;;;18.33;2.63;;;8.20;99.90;;;;;;6193089;23;20508;-93
2022/01/04 04:50:17;;;;;;;25.65;3.47;;;8.20;99.90;;;;;;6217177;23;20023;-94
2022/01/04 04:52:51;;;;;;;22.98;2.92;;;8.20;99.90;;;;;;6216764;23;20013;-94
2022/01/04 04:55:24;;;;;;;23.75;3.42;;;8.20;99.90;;;;;;6216570;23;20099;-93
2022/01/04 04:57:54;;;;;;;20.10;3.25;;;8.20;99.90;;;;;;6191289;23;20071;-93
2022/01/04 05:00:26;;;;;;;19.13;2.70;;;8.20;99.90;;;;;;6192250;23;20020;-93
2022/01/04 05:02:53;;;;;;;25.48;2.90;;;8.20;99.90;;;;;;6191636;23;20360;-93
2022/01/04 05:05:26;;;;;;;25.13;2.70;;;8.20;99.90;;;;;;6217873;23;20020;-93
2022/01/04 05:08:01;;;;;;;10.10;1.75;;;8.20;99.90;;;;;;6196051;23;20379;-92
2022/01/04 05:11:13;;;;;;;18.67;2.33;;;8.20;99.90;;;;;;6217470;23;20017;-94
2022/01/04 05:14:39;;;;;;;15.45;2.75;;;8.20;99.90;;;;;;6152292;23;20051;-94
2022/01/04 05:21:03;;;;;;;13.00;1.67;;;8.20;99.90;;;;;;6275562;22;20051;-90
2022/01/04 05:24:04;;;;;;;15.05;1.77;;;8.20;99.90;;;;;;6228674;22;20487;-95
2022/01/04 05:35:07;;;;;;;13.10;2.85;;;8.20;99.90;;;;;;6025328;23;20109;-93
2022/01/04 05:38:20;;;;;;;;;;;;;;;;;;;;;
2022/01/04 05:42:21;;;;;;;20.75;2.13;;;8.20;99.90;;;;;;5927580;24;20025;-94
2022/01/04 05:46:10;;;;;;;22.85;3.42;;;8.20;99.90;;;;;;5928482;24;20493;-93
2022/01/04 05:50:07;;;;;;;19.30;3.20;;;8.20;99.90;;;;;;6032393;23;20046;-93
2022/01/04 05:53:33;;;;;;;23.73;3.20;;;8.20;99.90;;;;;;6039602;23;20090;-94
2022/01/04 05:59:57;;;;;;;8.82;2.63;;;8.10;99.90;;;;;;6117056;23;20100;-93
2022/01/04 06:03:02;;;;;;;7.57;1.52;;;8.00;99.90;;;;;;6133047;23;20032;-92
2022/01/04 06:50:22;;;;;;;11.95;2.85;;;8.00;99.90;;;;;;6247449;23;20023;-92
2022/01/04 06:54:14;;;;;;;;;;;8.00;99.90;;;;;;6012871;23;20062;-92
2022/01/04 07:02:57;;;;;;;;;;;;;;;;;;;;;
2022/01/04 07:07:05;;;;;;;4.68;1.45;;;8.00;99.90;;;;;;5947675;23;20103;-92
2022/01/04 07:11:57;;;;;;;;;;;;;;;;;;;;;
2022/01/04 07:38:21;;;;;;;11.10;1.35;;;7.90;99.90;;;;;;6242354;23;20486;-92
2022/01/04 07:42:02;;;;;;;10.77;1.77;;;7.90;99.90;;;;;;6200548;23;20032;-92
2022/01/04 07:46:13;;;;;;;;;;;;;;;;;;;;;
2022/01/04 07:53:45;;;;;;;14.23;1.88;;;7.90;99.90;;;;;;6212503;23;20023;-92
2022/01/04 08:00:18;;;;;;;6.20;1.27;;;7.90;99.90;;;;;;6216664;23;20111;-93
2022/01/04 08:07:23;;;;;;;7.05;1.08;;;7.70;99.90;;;;;;6187930;23;20020;-92
2022/01/04 08:15:53;;;;;;;9.23;0.80;;;7.60;99.90;;;;;;5911200;24;20364;-92
2022/01/04 08:32:08;;;;;;;8.25;0.95;;;7.50;99.90;;;;;;6112434;23;20021;-93
2022/01/04 08:36:18;;;;;;;1.75;0.93;;;7.40;99.90;;;;;;6217835;23;20099;-94
2022/01/04 08:39:44;;;;;;;6.82;1.35;;;7.50;99.90;;;;;;6182097;23;20025;-93
2022/01/04 08:44:01;;;;;;;4.15;1.10;;;7.40;99.90;;;;;;6201649;23;20032;-94
2022/01/04 08:47:18;;;;;;;4.25;0.73;;;7.40;99.90;;;;;;6216571;23;20035;-95
2022/01/04 08:50:48;;;;;;;2.83;0.30;;;7.30;99.90;;;;;;6167953;23;20474;-93
2022/01/04 08:54:32;;;;;;;7.45;0.63;;;7.20;99.90;;;;;;6217139;23;20080;-94
2022/01/04 08:58:32;;;;;;;;;;;;;;;;;;;;;
2022/01/04 09:02:47;;;;;;;0.45;0.20;;;7.10;99.90;;;;;;6156873;23;20084;-93
2022/01/04 09:10:35;;;;;;;;;;;;;;;;;;;;;
2022/01/04 09:19:11;;;;;;;;;;;;;;;;;;;;;
2022/01/04 09:52:25;;;;;;;;;;;;;;;;;;;;;
2022/01/04 14:28:38;;;;;;;5.40;1.25;;;7.20;99.90;;;;;;6247713;22;20027;-91
2022/01/04 14:36:26;;;;;;;4.13;0.55;;;7.20;99.90;;;;;;6126852;23;20138;-92
2022/01/04 14:39:08;;;;;;;5.38;0.77;;;7.10;99.90;;;;;;6126616;23;20454;-93
2022/01/04 14:41:39;;;;;;;1.55;1.25;;;7.10;99.90;;;;;;6102232;23;20533;-94
2022/01/04 14:44:15;;;;;;;7.45;0.80;;;7.10;99.90;;;;;;6097451;23;20034;-94
2022/01/04 14:51:25;;;;;;;3.35;0.57;;;7.00;99.90;;;;;;6155206;23;20033;-91
2022/01/04 14:54:16;;;;;;;3.90;1.13;;;7.00;99.90;;;;;;6132779;23;20354;-93
2022/01/04 14:57:24;;;;;;;10.18;0.98;;;7.10;99.90;;;;;;6107063;23;20021;-94
2022/01/04 14:59:56;;;;;;;2.83;0.73;;;7.00;99.90;;;;;;6106715;23;20405;-94
2022/01/04 15:07:51;;;;;;;3.42;0.73;;;6.90;99.90;;;;;;6097346;23;20070;-94
2022/01/04 15:19:06;;;;;;;5.85;1.05;;;6.90;99.90;;;;;;6096092;23;20103;-94
2022/01/04 15:26:25;;;;;;;3.80;1.25;;;6.90;99.90;;;;;;6098664;23;20009;-94
2022/01/04 15:29:07;;;;;;;7.00;1.17;;;6.90;99.90;;;;;;6171328;23;20020;-93
2022/01/04 15:32:17;;;;;;;6.55;1.00;;;6.90;99.90;;;;;;6155842;23;20022;-94
2022/01/04 15:35:23;;;;;;;4.22;0.60;;;6.80;99.90;;;;;;6130980;23;20017;-92
2022/01/04 15:37:57;;;;;;;8.73;0.77;;;6.90;99.90;;;;;;6132143;23;20030;-93
2022/01/04 15:40:53;;;;;;;4.68;1.35;;;6.70;99.90;;;;;;6131929;23;20021;-94
2022/01/04 15:43:43;;;;;;;4.35;0.80;;;6.80;99.90;;;;;;6123469;23;20032;-95
2022/01/04 15:46:30;;;;;;;10.85;1.38;;;6.80;99.90;;;;;;6191577;23;20016;-95
2022/01/04 15:49:04;;;;;;;9.02;1.40;;;6.80;99.90;;;;;;6167968;23;20025;-92
2022/01/04 15:56:04;;;;;;;6.20;1.17;;;6.70;99.90;;;;;;6218223;23;20088;-93
2022/01/04 15:58:32;;;;;;;8.48;1.48;;;6.80;99.90;;;;;;6192700;23;20013;-93
2022/01/04 16:01:10;;;;;;;4.28;0.88;;;6.80;99.90;;;;;;6193675;23;20017;-93
2022/01/04 16:04:00;;;;;;;5.03;1.60;;;6.80;99.90;;;;;;6193698;23;20383;-94
2022/01/04 16:07:22;;;;;;;10.15;2.88;;;6.70;99.90;;;;;;6203021;23;20415;-95
2022/01/04 16:25:56;;;;;;;3.70;1.40;;;6.70;99.90;;;;;;6216556;22;20074;-90
2022/01/04 16:29:08;;;;;;;5.68;1.95;;;6.60;99.90;;;;;;6215818;23;20008;-92
2022/01/04 17:03:57;;;;;;;7.85;2.05;;;6.50;99.90;;;;;;6280094;22;20050;-93
2022/01/04 17:44:33;;;;;;;7.90;1.95;;;6.40;99.90;;;;;;6282145;22;20043;-90
2022/01/04 17:47:27;;;;;;;;;;;;;;;;;;;;;
2022/01/04 17:51:04;;;;;;;6.15;1.92;;;6.40;99.90;;;;;;6185975;23;20023;-91
2022/01/04 17:53:47;;;;;;;8.07;1.80;;;6.40;99.90;;;;;;6168334;22;20088;-90
2022/01/04 17:57:43;;;;;;;10.00;1.85;;;6.40;99.90;;;;;;6247432;23;20103;-93
2022/01/04 18:01:35;;;;;;;3.60;1.60;;;6.40;99.90;;;;;;6227255;22;20089;-93
2022/01/04 18:17:08;;;;;;;8.68;2.08;;;6.30;99.90;;;;;;6278379;22;20462;-91
2022/01/04 18:20:51;;;;;;;8.65;1.80;;;6.30;99.90;;;;;;6096306;23;20426;-92
2022/01/04 19:05:17;;;;;;;;;;;;;;;;;;;;;
2022/01/04 19:13:06;;;;;;;3.92;1.23;;;6.10;99.90;;;;;;6016958;23;20034;-93
2022/01/04 19:20:11;;;;;;;12.93;1.73;;;6.10;99.90;;;;;;6099964;23;20017;-93
2022/01/04 19:23:47;;;;;;;10.95;1.65;;;6.10;99.90;;;;;;6184504;23;20021;-93
2022/01/04 19:26:23;;;;;;;9.18;1.63;;;6.10;99.90;;;;;;6207210;23;20021;-91
2022/01/04 19:28:50;;;;;;;7.68;1.17;;;6.10;99.90;;;;;;6189086;23;20016;-90
2022/01/04 19:31:23;;;;;;;11.73;1.40;;;6.00;99.90;;;;;;6240380;23;20016;-90
2022/01/04 19:36:44;;;;;;;19.23;5.03;;;6.00;99.90;;;;;;6214440;23;20021;-92
2022/01/04 19:39:32;;;;;;;22.13;5.20;;;6.00;99.90;;;;;;6240423;23;20100;-91
2022/01/04 19:46:34;;;;;;;16.40;4.22;;;5.90;99.90;;;;;;6168166;23;20028;-92
2022/01/04 19:49:24;;;;;;;16.88;4.68;;;5.90;99.90;;;;;;6159187;23;20075;-93
2022/01/04 20:03:40;;;;;;;8.88;2.17;;;5.90;99.90;;;;;;6278257;22;20490;-93
2022/01/04 21:10:08;;;;;;;5.72;1.20;;;5.70;99.90;;;;;;6240616;22;20457;-93
2022/01/04 21:12:56;;;;;;;;;;;5.60;99.90;;;;;;6229953;22;20074;-94
2022/01/04 21:15:51;;;;;;;7.10;1.13;;;5.60;99.90;;;;;;6230099;22;19915;-94
2022/01/04 21:18:44;;;;;;;8.90;1.00;;;5.60;99.90;;;;;;6220381;23;20017;-94
2022/01/04 21:21:37;;;;;;;6.93;0.52;;;5.50;99.90;;;;;;6222503;23;20074;-94
2022/01/04 21:28:31;;;;;;;5.32;0.68;;;5.50;99.90;;;;;;6242018;22;20012;-94
2022/01/04 21:52:46;;;;;;;4.45;0.70;;;5.50;99.90;;;;;;6217405;23;20031;-93
2022/01/04 21:55:17;;;;;;;6.55;0.55;;;5.40;99.90;;;;;;6191368;23;20016;-90
2022/01/04 21:57:45;;;;;;;4.57;1.13;;;5.50;99.90;;;;;;6217452;23;20017;-90
2022/01/04 22:00:15;;;;;;;4.90;0.98;;;5.50;99.90;;;;;;6216169;23;20096;-89
2022/01/04 22:02:47;;;;;;;3.33;0.80;;;5.50;99.90;;;;;;6166349;23;20107;-90
2022/01/04 22:06:14;;;;;;;10.23;1.02;;;5.50;99.90;;;;;;6218392;23;20035;-91
2022/01/04 22:09:01;;;;;;;12.35;0.98;;;5.50;99.90;;;;;;6191482;23;20524;-91
2022/01/04 22:14:52;;;;;;;6.10;1.05;;;5.40;99.90;;;;;;6190886;23;20353;-91
2022/01/04 22:17:19;;;;;;;3.80;0.82;;;5.50;99.90;;;;;;6217601;23;20047;-91
2022/01/04 22:19:49;;;;;;;5.28;1.33;;;5.50;99.90;;;;;;6191334;23;20333;-91
2022/01/04 22:22:19;;;;;;;4.38;1.08;;;5.50;99.90;;;;;;6166395;23;20020;-91
2022/01/04 22:24:53;;;;;;;5.10;1.23;;;5.50;99.90;;;;;;6191314;23;20020;-89
2022/01/04 22:27:25;;;;;;;10.73;1.35;;;5.50;99.90;;;;;;6215834;23;20028;-90
2022/01/04 22:29:55;;;;;;;9.02;1.40;;;5.50;99.90;;;;;;6190384;23;20071;-89
2022/01/04 22:32:25;;;;;;;15.63;1.50;;;5.40;99.90;;;;;;6190766;23;20120;-90
2022/01/04 22:34:52;;;;;;;11.07;1.02;;;5.40;99.90;;;;;;6217097;23;20486;-90
2022/01/04 22:37:19;;;;;;;11.80;1.10;;;5.50;99.90;;;;;;6190499;23;20038;-90
2022/01/04 22:39:47;;;;;;;14.55;2.15;;;5.40;99.90;;;;;;6216902;23;20091;-90
2022/01/04 22:42:14;;;;;;;10.93;1.30;;;5.40;99.90;;;;;;6216429;23;20017;-90
2022/01/04 22:44:43;;;;;;;4.63;1.75;;;5.40;99.90;;;;;;6190832;23;20039;-90
2022/01/04 22:47:11;;;;;;;4.90;1.35;;;5.40;99.90;;;;;;6190353;23;20028;-90
2022/01/04 22:49:40;;;;;;;7.35;1.10;;;5.40;99.90;;;;;;6190273;23;20023;-89
2022/01/04 22:52:12;;;;;;;2.80;0.88;;;5.40;99.90;;;;;;6190544;23;20028;-90
2022/01/04 22:54:39;;;;;;;5.55;1.48;;;5.40;99.90;;;;;;6215431;23;20030;-90
2022/01/04 22:57:09;;;;;;;6.88;1.55;;;5.40;99.90;;;;;;6184876;23;20334;-90
2022/01/04 22:59:39;;;;;;;7.72;2.63;;;5.40;99.90;;;;;;6211966;23;20495;-90
2022/01/04 23:02:06;;;;;;;10.35;1.70;;;5.40;99.90;;;;;;6216507;23;20021;-90
2022/01/04 23:04:37;;;;;;;6.63;0.95;;;5.30;99.90;;;;;;6217600;23;20028;-88
2022/01/04 23:07:05;;;;;;;7.60;0.70;;;5.30;99.90;;;;;;6190594;23;20017;-90
2022/01/04 23:09:37;;;;;;;8.40;1.05;;;5.30;99.90;;;;;;6189822;23;20020;-90
2022/01/04 23:12:06;;;;;;;13.73;1.58;;;5.30;99.90;;;;;;6216368;23;20016;-90
2022/01/04 23:14:35;;;;;;;9.43;1.60;;;5.40;99.90;;;;;;6190900;23;20016;-90
2022/01/04 23:17:03;;;;;;;10.38;1.77;;;5.30;99.90;;;;;;6216425;23;20016;-89
2022/01/04 23:19:30;;;;;;;3.20;1.30;;;5.30;99.90;;;;;;6216615;23;20017;-90
2022/01/04 23:22:01;;;;;;;7.00;1.20;;;5.40;99.90;;;;;;6190659;23;20471;-90
2022/01/04 23:24:31;;;;;;;8.50;0.93;;;5.30;99.90;;;;;;6165914;23;20083;-89
2022/01/04 23:26:58;;;;;;;7.50;1.10;;;5.30;99.90;;;;;;6189903;23;20404;-90
2022/01/04 23:29:26;;;;;;;12.10;1.08;;;5.30;99.90;;;;;;6189439;23;20020;-89
2022/01/04 23:31:56;;;;;;;11.73;1.20;;;5.30;99.90;;;;;;6165113;23;20448;-90
2022/01/04 23:34:28;;;;;;;4.32;1.13;;;5.30;99.90;;;;;;6217096;23;20020;-90
2022/01/04 23:36:56;;;;;;;5.85;1.02;;;5.30;99.90;;;;;;6190749;23;20027;-89
2022/01/04 23:39:26;;;;;;;5.78;1.00;;;5.30;99.90;;;;;;6165474;23;20020;-90
2022/01/04 23:41:56;;;;;;;7.45;0.98;;;5.30;99.90;;;;;;6190669;23;20024;-90
2022/01/04 23:44:29;;;;;;;10.20;1.23;;;5.20;99.90;;;;;;6190914;23;20452;-90
2022/01/04 23:46:58;;;;;;;7.18;1.00;;;5.20;99.90;;;;;;6164705;23;20032;-89
2022/01/04 23:49:29;;;;;;;4.63;1.17;;;5.30;99.90;;;;;;6191732;23;20017;-90
2022/01/04 23:51:56;;;;;;;8.80;1.73;;;5.20;99.90;;;;;;6190132;23;20052;-90
2022/01/04 23:54:31;;;;;;;8.45;1.95;;;5.20;99.90;;;;;;6217165;23;20021;-89
2022/01/04 23:57:05;;;;;;;11.90;2.63;;;5.20;99.90;;;;;;6189358;23;20409;-89
2022/01/04 23:59:35;;;;;;;8.50;1.70;;;5.20;99.90;;;;;;6190111;23;20017;-90
